sensor_id;sensor_type;location;lat;lon;timestamp;temperature;humidity
26336;DHT22;14047;50.936;4.654;2022-10-24T00:00:43;17.60;99.90
26336;DHT22;14047;50.936;4.654;2022-10-24T00:03:10;17.70;99.90
26336;DHT22;14047;50.936;4.654;2022-10-24T00:05:36;17.80;99.90
26336;DHT22;14047;50.936;4.654;2022-10-24T00:08:01;17.80;99.90
26336;DHT22;14047;50.936;4.654;2022-10-24T00:10:27;17.90;99.90
26336;DHT22;14047;50.936;4.654;2022-10-24T00:12:53;17.80;99.90
26336;DHT22;14047;50.936;4.654;2022-10-24T00:15:19;17.90;99.90
26336;DHT22;14047;50.936;4.654;2022-10-24T00:17:45;17.80;99.90
26336;DHT22;14047;50.936;4.654;2022-10-24T00:20:11;17.80;99.90
26336;DHT22;14047;50.936;4.654;2022-10-24T00:22:36;17.80;99.90
26336;DHT22;14047;50.936;4.654;2022-10-24T00:25:03;17.90;99.90
26336;DHT22;14047;50.936;4.654;2022-10-24T00:27:28;17.90;99.90
26336;DHT22;14047;50.936;4.654;2022-10-24T00:29:54;17.80;99.90
26336;DHT22;14047;50.936;4.654;2022-10-24T00:32:20;17.90;99.90
26336;DHT22;14047;50.936;4.654;2022-10-24T00:34:46;18.00;99.90
26336;DHT22;14047;50.936;4.654;2022-10-24T00:37:11;18.00;99.90
26336;DHT22;14047;50.936;4.654;2022-10-24T00:39:37;17.80;99.90
26336;DHT22;14047;50.936;4.654;2022-10-24T00:42:03;17.80;99.90
26336;DHT22;14047;50.936;4.654;2022-10-24T00:44:31;17.90;99.90
26336;DHT22;14047;50.936;4.654;2022-10-24T00:47:07;17.90;99.90
26336;DHT22;14047;50.936;4.654;2022-10-24T00:52:36;17.90;99.90
26336;DHT22;14047;50.936;4.654;2022-10-24T00:55:04;17.90;99.90
26336;DHT22;14047;50.936;4.654;2022-10-24T01:00:23;17.90;99.90
26336;DHT22;14047;50.936;4.654;2022-10-24T01:02:47;18.00;99.90
26336;DHT22;14047;50.936;4.654;2022-10-24T01:05:13;17.90;99.90
26336;DHT22;14047;50.936;4.654;2022-10-24T01:13:13;17.90;99.90
26336;DHT22;14047;50.936;4.654;2022-10-24T01:15:48;17.80;99.90
26336;DHT22;14047;50.936;4.654;2022-10-24T01:18:30;17.80;99.90
26336;DHT22;14047;50.936;4.654;2022-10-24T01:21:13;17.80;99.90
26336;DHT22;14047;50.936;4.654;2022-10-24T01:34:55;17.80;99.90
26336;DHT22;14047;50.936;4.654;2022-10-24T01:37:38;17.60;99.90
26336;DHT22;14047;50.936;4.654;2022-10-24T01:40:16;17.60;99.90
26336;DHT22;14047;50.936;4.654;2022-10-24T01:42:44;17.60;99.90
26336;DHT22;14047;50.936;4.654;2022-10-24T01:45:15;17.50;99.90
26336;DHT22;14047;50.936;4.654;2022-10-24T01:47:49;17.60;99.90
26336;DHT22;14047;50.936;4.654;2022-10-24T01:50:17;17.60;99.90
26336;DHT22;14047;50.936;4.654;2022-10-24T01:52:45;17.60;99.90
26336;DHT22;14047;50.936;4.654;2022-10-24T01:55:12;17.60;99.90
26336;DHT22;14047;50.936;4.654;2022-10-24T01:57:37;17.50;99.90
26336;DHT22;14047;50.936;4.654;2022-10-24T02:00:06;17.50;99.90
26336;DHT22;14047;50.936;4.654;2022-10-24T02:02:43;17.50;99.90
26336;DHT22;14047;50.936;4.654;2022-10-24T02:05:23;17.50;99.90
26336;DHT22;14047;50.936;4.654;2022-10-24T02:07:55;17.50;99.90
26336;DHT22;14047;50.936;4.654;2022-10-24T02:10:50;17.40;99.90
26336;DHT22;14047;50.936;4.654;2022-10-24T02:16:20;17.30;99.90
26336;DHT22;14047;50.936;4.654;2022-10-24T02:18:48;17.30;99.90
26336;DHT22;14047;50.936;4.654;2022-10-24T02:21:35;17.20;99.90
26336;DHT22;14047;50.936;4.654;2022-10-24T02:24:17;17.30;99.90
26336;DHT22;14047;50.936;4.654;2022-10-24T02:26:53;17.30;99.90
26336;DHT22;14047;50.936;4.654;2022-10-24T02:29:33;17.40;99.90
26336;DHT22;14047;50.936;4.654;2022-10-24T02:32:06;17.40;99.90
26336;DHT22;14047;50.936;4.654;2022-10-24T02:34:33;17.40;99.90
26336;DHT22;14047;50.936;4.654;2022-10-24T02:37:00;17.50;99.90
26336;DHT22;14047;50.936;4.654;2022-10-24T02:39:28;17.40;99.90
26336;DHT22;14047;50.936;4.654;2022-10-24T02:41:55;17.40;99.90
26336;DHT22;14047;50.936;4.654;2022-10-24T02:44:23;17.40;99.90
26336;DHT22;14047;50.936;4.654;2022-10-24T02:46:52;17.50;99.90
26336;DHT22;14047;50.936;4.654;2022-10-24T02:49:18;17.50;99.90
26336;DHT22;14047;50.936;4.654;2022-10-24T02:51:45;17.70;99.90
26336;DHT22;14047;50.936;4.654;2022-10-24T02:54:12;17.70;99.90
26336;DHT22;14047;50.936;4.654;2022-10-24T02:56:42;17.80;99.90
26336;DHT22;14047;50.936;4.654;2022-10-24T02:59:09;17.80;99.90
26336;DHT22;14047;50.936;4.654;2022-10-24T03:01:34;17.80;99.90
26336;DHT22;14047;50.936;4.654;2022-10-24T03:04:00;17.70;99.90
26336;DHT22;14047;50.936;4.654;2022-10-24T03:06:26;17.60;99.90
26336;DHT22;14047;50.936;4.654;2022-10-24T03:08:51;17.50;99.90
26336;DHT22;14047;50.936;4.654;2022-10-24T03:11:17;17.50;99.90
26336;DHT22;14047;50.936;4.654;2022-10-24T03:13:43;17.30;99.90
26336;DHT22;14047;50.936;4.654;2022-10-24T03:16:08;17.30;99.90
26336;DHT22;14047;50.936;4.654;2022-10-24T03:18:34;17.30;99.90
26336;DHT22;14047;50.936;4.654;2022-10-24T03:21:00;17.40;99.90
26336;DHT22;14047;50.936;4.654;2022-10-24T03:23:25;17.40;99.90
26336;DHT22;14047;50.936;4.654;2022-10-24T03:25:57;17.60;99.90
26336;DHT22;14047;50.936;4.654;2022-10-24T03:28:23;17.60;99.90
26336;DHT22;14047;50.936;4.654;2022-10-24T03:30:49;17.40;99.90
26336;DHT22;14047;50.936;4.654;2022-10-24T03:33:14;17.50;99.90
26336;DHT22;14047;50.936;4.654;2022-10-24T03:35:41;17.50;99.90
26336;DHT22;14047;50.936;4.654;2022-10-24T03:38:07;17.60;99.90
26336;DHT22;14047;50.936;4.654;2022-10-24T03:40:33;17.50;99.90
26336;DHT22;14047;50.936;4.654;2022-10-24T03:42:59;17.40;99.90
26336;DHT22;14047;50.936;4.654;2022-10-24T03:45:25;17.40;99.90
26336;DHT22;14047;50.936;4.654;2022-10-24T03:47:51;17.30;99.90
26336;DHT22;14047;50.936;4.654;2022-10-24T03:50:17;17.30;99.90
26336;DHT22;14047;50.936;4.654;2022-10-24T03:52:42;17.30;99.90
26336;DHT22;14047;50.936;4.654;2022-10-24T03:55:08;17.40;99.90
26336;DHT22;14047;50.936;4.654;2022-10-24T03:57:34;17.40;99.90
26336;DHT22;14047;50.936;4.654;2022-10-24T04:00:00;17.20;99.90
26336;DHT22;14047;50.936;4.654;2022-10-24T04:02:26;17.20;99.90
26336;DHT22;14047;50.936;4.654;2022-10-24T04:04:51;17.30;99.90
26336;DHT22;14047;50.936;4.654;2022-10-24T04:07:17;17.40;99.90
26336;DHT22;14047;50.936;4.654;2022-10-24T04:09:43;17.30;99.90
26336;DHT22;14047;50.936;4.654;2022-10-24T04:12:08;17.20;99.90
26336;DHT22;14047;50.936;4.654;2022-10-24T04:14:34;17.10;99.90
26336;DHT22;14047;50.936;4.654;2022-10-24T04:17:00;17.10;99.90
26336;DHT22;14047;50.936;4.654;2022-10-24T04:19:25;17.20;99.90
26336;DHT22;14047;50.936;4.654;2022-10-24T04:21:51;17.30;99.90
26336;DHT22;14047;50.936;4.654;2022-10-24T04:24:17;17.40;99.90
26336;DHT22;14047;50.936;4.654;2022-10-24T04:26:42;17.40;99.90
26336;DHT22;14047;50.936;4.654;2022-10-24T04:29:08;17.60;99.90
26336;DHT22;14047;50.936;4.654;2022-10-24T04:31:34;17.60;99.90
26336;DHT22;14047;50.936;4.654;2022-10-24T04:34:00;17.50;99.90
26336;DHT22;14047;50.936;4.654;2022-10-24T04:36:26;17.40;99.90
26336;DHT22;14047;50.936;4.654;2022-10-24T04:38:52;17.20;99.90
26336;DHT22;14047;50.936;4.654;2022-10-24T04:41:17;17.10;99.90
26336;DHT22;14047;50.936;4.654;2022-10-24T04:43:43;17.00;99.90
26336;DHT22;14047;50.936;4.654;2022-10-24T04:46:08;17.10;99.90
26336;DHT22;14047;50.936;4.654;2022-10-24T04:48:34;17.00;99.90
26336;DHT22;14047;50.936;4.654;2022-10-24T04:51:00;17.00;99.90
26336;DHT22;14047;50.936;4.654;2022-10-24T04:53:25;17.10;99.90
26336;DHT22;14047;50.936;4.654;2022-10-24T04:55:51;17.10;99.90
26336;DHT22;14047;50.936;4.654;2022-10-24T04:58:17;17.10;99.90
26336;DHT22;14047;50.936;4.654;2022-10-24T05:00:42;17.30;99.90
26336;DHT22;14047;50.936;4.654;2022-10-24T05:03:11;17.30;99.90
26336;DHT22;14047;50.936;4.654;2022-10-24T05:05:37;17.20;99.90
26336;DHT22;14047;50.936;4.654;2022-10-24T05:08:03;17.20;99.90
26336;DHT22;14047;50.936;4.654;2022-10-24T05:10:29;17.30;99.90
26336;DHT22;14047;50.936;4.654;2022-10-24T05:12:54;17.30;99.90
26336;DHT22;14047;50.936;4.654;2022-10-24T05:15:20;17.20;99.90
26336;DHT22;14047;50.936;4.654;2022-10-24T05:17:46;17.10;99.90
26336;DHT22;14047;50.936;4.654;2022-10-24T05:20:12;17.20;99.90
26336;DHT22;14047;50.936;4.654;2022-10-24T05:22:37;17.20;99.90
26336;DHT22;14047;50.936;4.654;2022-10-24T05:25:04;17.10;99.90
26336;DHT22;14047;50.936;4.654;2022-10-24T05:27:29;17.10;99.90
26336;DHT22;14047;50.936;4.654;2022-10-24T05:29:55;17.20;99.90
26336;DHT22;14047;50.936;4.654;2022-10-24T05:32:22;17.20;99.90
26336;DHT22;14047;50.936;4.654;2022-10-24T05:34:48;17.20;99.90
26336;DHT22;14047;50.936;4.654;2022-10-24T05:37:14;17.10;99.90
26336;DHT22;14047;50.936;4.654;2022-10-24T05:39:40;17.10;99.90
26336;DHT22;14047;50.936;4.654;2022-10-24T05:42:06;16.90;99.90
26336;DHT22;14047;50.936;4.654;2022-10-24T05:44:31;16.90;99.90
26336;DHT22;14047;50.936;4.654;2022-10-24T05:46:57;16.90;99.90
26336;DHT22;14047;50.936;4.654;2022-10-24T05:49:23;17.00;99.90
26336;DHT22;14047;50.936;4.654;2022-10-24T05:51:48;17.10;99.90
26336;DHT22;14047;50.936;4.654;2022-10-24T05:54:14;17.20;99.90
26336;DHT22;14047;50.936;4.654;2022-10-24T05:56:40;17.10;99.90
26336;DHT22;14047;50.936;4.654;2022-10-24T05:59:05;17.10;99.90
26336;DHT22;14047;50.936;4.654;2022-10-24T06:01:31;17.20;99.90
26336;DHT22;14047;50.936;4.654;2022-10-24T06:03:57;17.20;99.90
26336;DHT22;14047;50.936;4.654;2022-10-24T06:06:23;17.10;99.90
26336;DHT22;14047;50.936;4.654;2022-10-24T06:08:49;17.20;99.90
26336;DHT22;14047;50.936;4.654;2022-10-24T06:11:16;17.20;99.90
26336;DHT22;14047;50.936;4.654;2022-10-24T06:13:42;17.20;99.90
26336;DHT22;14047;50.936;4.654;2022-10-24T06:16:08;17.10;99.90
26336;DHT22;14047;50.936;4.654;2022-10-24T06:18:35;17.10;99.90
26336;DHT22;14047;50.936;4.654;2022-10-24T06:21:02;17.20;99.90
26336;DHT22;14047;50.936;4.654;2022-10-24T06:23:28;17.30;99.90
26336;DHT22;14047;50.936;4.654;2022-10-24T06:25:53;17.20;99.90
26336;DHT22;14047;50.936;4.654;2022-10-24T06:28:19;17.30;99.90
26336;DHT22;14047;50.936;4.654;2022-10-24T06:30:48;17.30;99.90
26336;DHT22;14047;50.936;4.654;2022-10-24T06:33:14;17.20;99.90
26336;DHT22;14047;50.936;4.654;2022-10-24T06:35:39;17.00;99.90
26336;DHT22;14047;50.936;4.654;2022-10-24T06:38:05;16.90;99.90
26336;DHT22;14047;50.936;4.654;2022-10-24T06:40:31;16.70;99.90
26336;DHT22;14047;50.936;4.654;2022-10-24T06:42:56;16.50;99.90
26336;DHT22;14047;50.936;4.654;2022-10-24T06:45:22;16.50;99.90
26336;DHT22;14047;50.936;4.654;2022-10-24T06:47:49;16.30;99.90
26336;DHT22;14047;50.936;4.654;2022-10-24T06:50:15;16.30;99.90
26336;DHT22;14047;50.936;4.654;2022-10-24T06:52:41;16.40;99.90
26336;DHT22;14047;50.936;4.654;2022-10-24T06:55:07;16.60;99.90
26336;DHT22;14047;50.936;4.654;2022-10-24T06:57:32;16.60;99.90
26336;DHT22;14047;50.936;4.654;2022-10-24T06:59:58;16.70;99.90
26336;DHT22;14047;50.936;4.654;2022-10-24T07:02:24;16.70;99.90
26336;DHT22;14047;50.936;4.654;2022-10-24T07:04:49;16.70;99.90
26336;DHT22;14047;50.936;4.654;2022-10-24T07:07:20;16.70;99.90
26336;DHT22;14047;50.936;4.654;2022-10-24T07:09:51;16.60;99.90
26336;DHT22;14047;50.936;4.654;2022-10-24T07:12:19;16.60;99.90
26336;DHT22;14047;50.936;4.654;2022-10-24T07:14:44;16.60;99.90
26336;DHT22;14047;50.936;4.654;2022-10-24T07:17:10;16.60;99.90
26336;DHT22;14047;50.936;4.654;2022-10-24T07:19:36;16.70;99.90
26336;DHT22;14047;50.936;4.654;2022-10-24T07:22:01;16.70;99.90
26336;DHT22;14047;50.936;4.654;2022-10-24T07:24:27;16.70;99.90
26336;DHT22;14047;50.936;4.654;2022-10-24T07:26:53;16.70;99.90
26336;DHT22;14047;50.936;4.654;2022-10-24T07:29:18;16.70;99.90
26336;DHT22;14047;50.936;4.654;2022-10-24T07:31:46;16.70;99.90
26336;DHT22;14047;50.936;4.654;2022-10-24T07:34:13;16.70;99.90
26336;DHT22;14047;50.936;4.654;2022-10-24T07:36:38;16.60;99.90
26336;DHT22;14047;50.936;4.654;2022-10-24T07:39:04;16.80;99.90
26336;DHT22;14047;50.936;4.654;2022-10-24T07:41:30;16.80;99.90
26336;DHT22;14047;50.936;4.654;2022-10-24T07:43:57;16.80;99.90
26336;DHT22;14047;50.936;4.654;2022-10-24T07:46:24;16.80;99.90
26336;DHT22;14047;50.936;4.654;2022-10-24T07:48:51;16.80;99.90
26336;DHT22;14047;50.936;4.654;2022-10-24T07:51:17;16.90;99.90
26336;DHT22;14047;50.936;4.654;2022-10-24T07:53:43;17.00;99.90
26336;DHT22;14047;50.936;4.654;2022-10-24T07:56:10;17.10;99.90
26336;DHT22;14047;50.936;4.654;2022-10-24T07:58:39;17.10;99.90
26336;DHT22;14047;50.936;4.654;2022-10-24T08:01:07;17.30;99.90
26336;DHT22;14047;50.936;4.654;2022-10-24T08:03:33;17.30;99.90
26336;DHT22;14047;50.936;4.654;2022-10-24T08:05:59;17.30;99.90
26336;DHT22;14047;50.936;4.654;2022-10-24T08:08:28;17.30;99.90
26336;DHT22;14047;50.936;4.654;2022-10-24T08:10:54;17.40;99.90
26336;DHT22;14047;50.936;4.654;2022-10-24T08:13:19;17.40;99.90
26336;DHT22;14047;50.936;4.654;2022-10-24T08:15:46;17.30;99.90
26336;DHT22;14047;50.936;4.654;2022-10-24T08:18:12;17.20;99.90
26336;DHT22;14047;50.936;4.654;2022-10-24T08:20:37;17.10;99.90
26336;DHT22;14047;50.936;4.654;2022-10-24T08:23:03;17.10;99.90
26336;DHT22;14047;50.936;4.654;2022-10-24T08:25:29;17.10;99.90
26336;DHT22;14047;50.936;4.654;2022-10-24T08:27:54;17.00;99.90
26336;DHT22;14047;50.936;4.654;2022-10-24T08:30:20;17.00;99.90
26336;DHT22;14047;50.936;4.654;2022-10-24T08:32:46;17.00;99.90
26336;DHT22;14047;50.936;4.654;2022-10-24T08:35:15;17.10;99.90
26336;DHT22;14047;50.936;4.654;2022-10-24T08:37:42;17.20;99.90
26336;DHT22;14047;50.936;4.654;2022-10-24T08:40:11;17.10;99.90
26336;DHT22;14047;50.936;4.654;2022-10-24T08:42:40;17.20;99.90
26336;DHT22;14047;50.936;4.654;2022-10-24T08:45:18;17.10;99.90
26336;DHT22;14047;50.936;4.654;2022-10-24T08:48:06;17.30;99.90
26336;DHT22;14047;50.936;4.654;2022-10-24T08:50:34;17.40;99.90
26336;DHT22;14047;50.936;4.654;2022-10-24T08:53:13;17.40;99.90
26336;DHT22;14047;50.936;4.654;2022-10-24T08:55:46;17.50;99.90
26336;DHT22;14047;50.936;4.654;2022-10-24T08:58:31;17.50;99.90
26336;DHT22;14047;50.936;4.654;2022-10-24T09:01:00;17.50;99.90
26336;DHT22;14047;50.936;4.654;2022-10-24T09:03:48;17.50;99.90
26336;DHT22;14047;50.936;4.654;2022-10-24T09:06:20;17.60;99.90
26336;DHT22;14047;50.936;4.654;2022-10-24T09:14:26;17.50;99.90
26336;DHT22;14047;50.936;4.654;2022-10-24T09:19:39;17.60;99.90
26336;DHT22;14047;50.936;4.654;2022-10-24T09:22:06;17.50;99.90
26336;DHT22;14047;50.936;4.654;2022-10-24T09:24:40;17.50;99.90
26336;DHT22;14047;50.936;4.654;2022-10-24T09:27:13;17.60;99.90
26336;DHT22;14047;50.936;4.654;2022-10-24T09:29:40;17.80;99.90
26336;DHT22;14047;50.936;4.654;2022-10-24T09:32:13;17.80;99.90
26336;DHT22;14047;50.936;4.654;2022-10-24T09:34:40;18.10;99.90
26336;DHT22;14047;50.936;4.654;2022-10-24T09:37:05;18.30;99.90
26336;DHT22;14047;50.936;4.654;2022-10-24T09:39:32;18.30;99.90
26336;DHT22;14047;50.936;4.654;2022-10-24T09:42:01;18.40;99.90
26336;DHT22;14047;50.936;4.654;2022-10-24T09:46:53;18.50;99.90
26336;DHT22;14047;50.936;4.654;2022-10-24T09:49:21;18.60;99.90
26336;DHT22;14047;50.936;4.654;2022-10-24T09:52:07;18.70;99.90
26336;DHT22;14047;50.936;4.654;2022-10-24T09:54:40;18.70;99.90
26336;DHT22;14047;50.936;4.654;2022-10-24T09:57:13;18.60;99.90
26336;DHT22;14047;50.936;4.654;2022-10-24T10:04:36;18.50;99.90
26336;DHT22;14047;50.936;4.654;2022-10-24T10:07:10;18.40;99.90
26336;DHT22;14047;50.936;4.654;2022-10-24T10:09:36;18.30;99.90
26336;DHT22;14047;50.936;4.654;2022-10-24T10:12:23;18.20;99.90
26336;DHT22;14047;50.936;4.654;2022-10-24T10:14:50;18.30;99.90
26336;DHT22;14047;50.936;4.654;2022-10-24T10:17:22;18.30;99.90
26336;DHT22;14047;50.936;4.654;2022-10-24T10:19:48;18.30;99.90
26336;DHT22;14047;50.936;4.654;2022-10-24T10:22:34;18.30;99.90
26336;DHT22;14047;50.936;4.654;2022-10-24T10:24:59;18.30;99.90
26336;DHT22;14047;50.936;4.654;2022-10-24T10:27:35;18.40;99.90
26336;DHT22;14047;50.936;4.654;2022-10-24T10:35:25;18.50;99.90
26336;DHT22;14047;50.936;4.654;2022-10-24T10:40:45;18.40;99.90
26336;DHT22;14047;50.936;4.654;2022-10-24T10:43:32;18.60;99.90
26336;DHT22;14047;50.936;4.654;2022-10-24T10:46:22;18.70;99.90
26336;DHT22;14047;50.936;4.654;2022-10-24T10:51:55;18.80;99.90
26336;DHT22;14047;50.936;4.654;2022-10-24T11:03:46;19.00;99.90
26336;DHT22;14047;50.936;4.654;2022-10-24T11:12:02;19.30;99.90
26336;DHT22;14047;50.936;4.654;2022-10-24T11:14:42;19.20;99.90
26336;DHT22;14047;50.936;4.654;2022-10-24T11:17:17;19.10;99.90
26336;DHT22;14047;50.936;4.654;2022-10-24T11:23:11;18.70;99.90
26336;DHT22;14047;50.936;4.654;2022-10-24T11:25:49;18.80;99.90
26336;DHT22;14047;50.936;4.654;2022-10-24T11:28:24;18.60;99.90
26336;DHT22;14047;50.936;4.654;2022-10-24T11:39:32;17.30;99.90
26336;DHT22;14047;50.936;4.654;2022-10-24T11:42:20;17.40;99.90
26336;DHT22;14047;50.936;4.654;2022-10-24T11:45:02;17.60;99.90
26336;DHT22;14047;50.936;4.654;2022-10-24T11:47:40;17.80;99.90
26336;DHT22;14047;50.936;4.654;2022-10-24T11:50:27;17.80;99.90
26336;DHT22;14047;50.936;4.654;2022-10-24T11:55:49;17.90;99.90
26336;DHT22;14047;50.936;4.654;2022-10-24T11:58:20;17.90;99.90
26336;DHT22;14047;50.936;4.654;2022-10-24T12:19:29;17.70;99.90
26336;DHT22;14047;50.936;4.654;2022-10-24T12:21:57;17.50;99.90
26336;DHT22;14047;50.936;4.654;2022-10-24T12:24:30;17.40;99.90
26336;DHT22;14047;50.936;4.654;2022-10-24T12:27:01;17.20;99.90
26336;DHT22;14047;50.936;4.654;2022-10-24T12:29:29;17.30;99.90
26336;DHT22;14047;50.936;4.654;2022-10-24T12:31:59;17.30;99.90
26336;DHT22;14047;50.936;4.654;2022-10-24T12:34:56;17.00;99.90
26336;DHT22;14047;50.936;4.654;2022-10-24T12:39:52;17.00;99.90
26336;DHT22;14047;50.936;4.654;2022-10-24T12:49:53;17.20;99.90
26336;DHT22;14047;50.936;4.654;2022-10-24T12:54:57;17.30;99.90
26336;DHT22;14047;50.936;4.654;2022-10-24T12:57:27;17.40;99.90
26336;DHT22;14047;50.936;4.654;2022-10-24T12:59:56;17.40;99.90
26336;DHT22;14047;50.936;4.654;2022-10-24T13:19:08;16.10;99.90
26336;DHT22;14047;50.936;4.654;2022-10-24T13:21:53;16.10;99.90
26336;DHT22;14047;50.936;4.654;2022-10-24T13:24:34;16.00;99.90
26336;DHT22;14047;50.936;4.654;2022-10-24T13:37:11;16.70;99.90
26336;DHT22;14047;50.936;4.654;2022-10-24T13:39:44;16.90;99.90
26336;DHT22;14047;50.936;4.654;2022-10-24T13:42:33;16.90;99.90
26336;DHT22;14047;50.936;4.654;2022-10-24T13:45:15;17.00;99.90
26336;DHT22;14047;50.936;4.654;2022-10-24T13:47:46;17.10;99.90
26336;DHT22;14047;50.936;4.654;2022-10-24T13:50:23;17.30;99.90
26336;DHT22;14047;50.936;4.654;2022-10-24T13:52:56;17.40;99.90
26336;DHT22;14047;50.936;4.654;2022-10-24T13:55:30;17.40;99.90
26336;DHT22;14047;50.936;4.654;2022-10-24T13:58:21;17.60;99.90
26336;DHT22;14047;50.936;4.654;2022-10-24T14:01:00;17.70;99.90
26336;DHT22;14047;50.936;4.654;2022-10-24T14:03:29;17.70;99.90
26336;DHT22;14047;50.936;4.654;2022-10-24T14:06:03;17.70;99.90
26336;DHT22;14047;50.936;4.654;2022-10-24T14:08:31;17.70;99.90
26336;DHT22;14047;50.936;4.654;2022-10-24T14:11:00;17.90;99.90
26336;DHT22;14047;50.936;4.654;2022-10-24T14:13:28;18.00;99.90
26336;DHT22;14047;50.936;4.654;2022-10-24T14:15:58;18.00;99.90
26336;DHT22;14047;50.936;4.654;2022-10-24T14:18:24;18.10;99.90
26336;DHT22;14047;50.936;4.654;2022-10-24T14:20:56;18.10;99.90
26336;DHT22;14047;50.936;4.654;2022-10-24T14:23:31;18.20;99.90
26336;DHT22;14047;50.936;4.654;2022-10-24T14:28:43;18.50;99.90
26336;DHT22;14047;50.936;4.654;2022-10-24T14:31:21;18.50;99.90
26336;DHT22;14047;50.936;4.654;2022-10-24T14:33:50;18.50;99.90
26336;DHT22;14047;50.936;4.654;2022-10-24T14:36:17;18.30;99.90
26336;DHT22;14047;50.936;4.654;2022-10-24T14:38:47;18.20;99.90
26336;DHT22;14047;50.936;4.654;2022-10-24T14:41:15;18.10;99.90
26336;DHT22;14047;50.936;4.654;2022-10-24T14:43:42;18.00;99.90
26336;DHT22;14047;50.936;4.654;2022-10-24T14:48:40;18.20;99.90
26336;DHT22;14047;50.936;4.654;2022-10-24T14:53:54;18.10;99.90
26336;DHT22;14047;50.936;4.654;2022-10-24T14:56:34;18.20;99.90
26336;DHT22;14047;50.936;4.654;2022-10-24T14:59:05;18.40;99.90
26336;DHT22;14047;50.936;4.654;2022-10-24T15:01:31;18.60;99.90
26336;DHT22;14047;50.936;4.654;2022-10-24T15:04:03;18.80;99.90
26336;DHT22;14047;50.936;4.654;2022-10-24T15:06:41;19.00;99.90
26336;DHT22;14047;50.936;4.654;2022-10-24T15:14:03;19.30;99.90
26336;DHT22;14047;50.936;4.654;2022-10-24T15:16:37;19.50;99.90
26336;DHT22;14047;50.936;4.654;2022-10-24T15:19:04;19.60;99.90
26336;DHT22;14047;50.936;4.654;2022-10-24T15:21:36;19.50;99.90
26336;DHT22;14047;50.936;4.654;2022-10-24T15:24:02;19.00;99.90
26336;DHT22;14047;50.936;4.654;2022-10-24T15:26:37;18.90;99.90
26336;DHT22;14047;50.936;4.654;2022-10-24T15:29:18;18.90;99.90
26336;DHT22;14047;50.936;4.654;2022-10-24T15:31:46;18.80;99.90
26336;DHT22;14047;50.936;4.654;2022-10-24T15:34:18;18.90;99.90
26336;DHT22;14047;50.936;4.654;2022-10-24T15:36:46;18.70;99.90
26336;DHT22;14047;50.936;4.654;2022-10-24T15:39:17;18.80;99.90
26336;DHT22;14047;50.936;4.654;2022-10-24T15:41:43;18.60;99.90
26336;DHT22;14047;50.936;4.654;2022-10-24T15:44:18;18.40;99.90
26336;DHT22;14047;50.936;4.654;2022-10-24T15:46:45;17.80;99.90
26336;DHT22;14047;50.936;4.654;2022-10-24T15:49:11;17.80;99.90
26336;DHT22;14047;50.936;4.654;2022-10-24T15:51:39;18.00;99.90
26336;DHT22;14047;50.936;4.654;2022-10-24T15:54:05;18.10;99.90
26336;DHT22;14047;50.936;4.654;2022-10-24T15:56:31;18.50;99.90
26336;DHT22;14047;50.936;4.654;2022-10-24T15:58:57;18.70;99.90
26336;DHT22;14047;50.936;4.654;2022-10-24T16:01:28;18.90;99.90
26336;DHT22;14047;50.936;4.654;2022-10-24T16:03:54;18.80;99.90
26336;DHT22;14047;50.936;4.654;2022-10-24T16:06:20;18.80;99.90
26336;DHT22;14047;50.936;4.654;2022-10-24T16:08:47;18.80;99.90
26336;DHT22;14047;50.936;4.654;2022-10-24T16:11:13;19.00;99.90
26336;DHT22;14047;50.936;4.654;2022-10-24T16:13:38;18.50;99.90
26336;DHT22;14047;50.936;4.654;2022-10-24T16:16:04;18.50;99.90
26336;DHT22;14047;50.936;4.654;2022-10-24T16:18:30;18.40;99.90
26336;DHT22;14047;50.936;4.654;2022-10-24T16:20:57;18.50;99.90
26336;DHT22;14047;50.936;4.654;2022-10-24T16:23:23;18.50;99.90
26336;DHT22;14047;50.936;4.654;2022-10-24T16:25:50;18.40;99.90
26336;DHT22;14047;50.936;4.654;2022-10-24T16:28:17;18.30;99.90
26336;DHT22;14047;50.936;4.654;2022-10-24T16:30:43;18.20;99.90
26336;DHT22;14047;50.936;4.654;2022-10-24T16:33:10;18.10;99.90
26336;DHT22;14047;50.936;4.654;2022-10-24T16:35:37;18.00;99.90
26336;DHT22;14047;50.936;4.654;2022-10-24T16:38:04;17.90;99.90
26336;DHT22;14047;50.936;4.654;2022-10-24T16:40:30;17.80;99.90
26336;DHT22;14047;50.936;4.654;2022-10-24T16:42:58;17.70;99.90
26336;DHT22;14047;50.936;4.654;2022-10-24T16:45:24;17.60;99.90
26336;DHT22;14047;50.936;4.654;2022-10-24T16:47:50;17.50;99.90
26336;DHT22;14047;50.936;4.654;2022-10-24T16:50:21;17.50;99.90
26336;DHT22;14047;50.936;4.654;2022-10-24T16:52:56;17.50;99.90
26336;DHT22;14047;50.936;4.654;2022-10-24T16:55:22;17.40;99.90
26336;DHT22;14047;50.936;4.654;2022-10-24T16:57:48;17.40;99.90
26336;DHT22;14047;50.936;4.654;2022-10-24T17:00:15;17.40;99.90
26336;DHT22;14047;50.936;4.654;2022-10-24T17:02:42;17.30;99.90
26336;DHT22;14047;50.936;4.654;2022-10-24T17:05:10;17.30;99.90
26336;DHT22;14047;50.936;4.654;2022-10-24T17:07:36;17.30;99.90
26336;DHT22;14047;50.936;4.654;2022-10-24T17:10:02;17.30;99.90
26336;DHT22;14047;50.936;4.654;2022-10-24T17:12:28;17.10;99.90
26336;DHT22;14047;50.936;4.654;2022-10-24T17:14:54;17.10;99.90
26336;DHT22;14047;50.936;4.654;2022-10-24T17:17:19;17.10;99.90
26336;DHT22;14047;50.936;4.654;2022-10-24T17:19:45;17.00;99.90
26336;DHT22;14047;50.936;4.654;2022-10-24T17:22:13;16.90;99.90
26336;DHT22;14047;50.936;4.654;2022-10-24T17:24:39;16.90;99.90
26336;DHT22;14047;50.936;4.654;2022-10-24T17:27:13;17.00;99.90
26336;DHT22;14047;50.936;4.654;2022-10-24T17:29:40;17.10;99.90
26336;DHT22;14047;50.936;4.654;2022-10-24T17:32:06;17.10;99.90
26336;DHT22;14047;50.936;4.654;2022-10-24T17:34:33;17.00;99.90
26336;DHT22;14047;50.936;4.654;2022-10-24T17:37:23;16.90;99.90
26336;DHT22;14047;50.936;4.654;2022-10-24T17:40:00;16.90;99.90
26336;DHT22;14047;50.936;4.654;2022-10-24T17:42:27;16.80;99.90
26336;DHT22;14047;50.936;4.654;2022-10-24T17:44:52;16.70;99.90
26336;DHT22;14047;50.936;4.654;2022-10-24T17:47:18;16.50;99.90
26336;DHT22;14047;50.936;4.654;2022-10-24T17:49:44;16.50;99.90
26336;DHT22;14047;50.936;4.654;2022-10-24T17:52:12;16.50;99.90
26336;DHT22;14047;50.936;4.654;2022-10-24T17:54:38;16.40;99.90
26336;DHT22;14047;50.936;4.654;2022-10-24T17:57:04;16.00;99.90
26336;DHT22;14047;50.936;4.654;2022-10-24T17:59:32;15.60;99.90
26336;DHT22;14047;50.936;4.654;2022-10-24T18:01:58;15.20;99.90
26336;DHT22;14047;50.936;4.654;2022-10-24T18:04:23;14.80;99.90
26336;DHT22;14047;50.936;4.654;2022-10-24T18:06:49;14.70;99.90
26336;DHT22;14047;50.936;4.654;2022-10-24T18:09:14;14.60;99.90
26336;DHT22;14047;50.936;4.654;2022-10-24T18:11:40;14.50;99.90
26336;DHT22;14047;50.936;4.654;2022-10-24T18:14:07;14.40;99.90